SMRA30 UAOL 242100
AAXX 24211
30028 42997 10000 11095 21103 39799 40254 52017 80001=
30054 42998 20000 11083 21093 39967 40213 52015 80001=
30089 42999 00000 11085 21133 39927 40155 52014=
30127 429// 00000 11090 21115 39679 40242 53031=
30157 42998 23104 11028 21069 39919 40202 52018 80001=
30173 42999 00000 11114 21114 39914 40173 52009=
30198 42999 10000 11060 21095 39631 40156 53030 80001=
30230 42599 60203 11016 21121 39886 40212 52023 82931=
30252 42999 60000 11040 21051 39883 40197 53019 80001=
30309 425// 80101 10005 21016 39698 40212 51015 889//=
30323 42998 41301 11017 21019 39802 40210 53021 82031=
30337 415// 73502 10001 21037 39735 40177 52015 70282 87900=
30385 42599 70202 10008 21133 39596 40121 52015 87900=
30393 42599 83603 11053 21071 39090 40131 52010 84531=
30405 415// 80102 10014 20003 39688 40207 52013 78082 86901=
30433 426// 80101 10047 20028 39530 40101 52007 85932=
30455 42/// /3306 10041 20008 38819 48397 53012 333 91111=
30499 42599 80302 10017 21081 39447 40083 51023 889// 333 91111=
30504 425// 63502 10041 20006 39565 40196 52006 83501=
30521 425// 83006 10071 20021 39655 40157 53026 889// 333 91113=
30526 415// 72904 10061 20032 39355 40122 52004 78082 87900=
30554 429// 83402 10004 21037 39016 40079 53004 84041=
30603 426// 83204 10064 20012 39635 40186 51010 82531 333 91110=
30612 425// 53005 10071 20016 39663 40175 52015 82505=
30622 426// 63203 10091 20029 39522 40137 53013 84930=
30627 42699 33203 10084 20016 39253 40139 52015 81101=
30635 428// 32602 10017 21012 39561 40120 52014 82032=
30636 425// 82701 10087 21019 39508 40084 52013 82931=
30637 42599 82803 10090 20032 39572 40117 51006 85902=
30650 425// 62401 10001 21067 39012 40098 52011 86900=
30664 42999 82501 11020 21055 39113 40080 53003 83045=
30673 42/// /2702 10010 21040 39294 40039 53002=
30683 42997 80203 10071 21015 39412 40025 53009 87074=
30686 42999 80201 10022 21048 39669 40027 53002 86037=
30692 42599 80202 10069 20003 39555 40026 53009 8397/=
30695 42598 73501 10034 21051 39697 40019 57001 84909=
30703 425// 60000 10088 20024 39535 40179 53006 86900=
30710 426// 83103 10106 20035 39613 40167 52033 84431=
30731 429// 31102 10008 21026 39541 40135 53020 80002=
30739 429// 61201 10022 21080 39312 40107 53026 83072=
30741 42/// /3003 10070 21027 38643 48420 51012 333 91110=
30745 425// 82101 11013 21063 38988 40115 53018 82981=
30758 42999 51301 10030 21080 39276 40071 53002 80001=
30764 42998 20000 11031 21060 39299 40081 52002 81031=
30777 42998 12302 10049 21053 39420 40047 53005 81030=
30781 42999 80000 11026 21048 39574 40036 55001 80006=
30802 42999 01901 10038 21036 38684 48475 53011=
30815 42899 83601 10050 21006 38542 48483 52007 82031=
30822 42998 73004 10064 20001 39580 40136 51017 83032=
30823 42599 83102 10114 21018 39506 40106 52031 86932=
30829 42584 63507 10139 21043 39456 40098 53025 81931 333 91111=
30838 42/// /0000 11023 21062 39166 40140 53025=
30844 42999 02503 11020 21057 39156 40116 53012=
30846 42999 10000 10042 21076 39201 40074 55002 80003=
30859 42999 02401 10007 21085 39266 40079 54001=
30862 42999 22604 10070 21072 39346 40045 53002 82040=
30879 42999 80000 10045 21049 39318 40049 56010 82042=
30925 429// 23305 10139 21058 39183 40088 52027 80005 333 91111=
30935 42999 03202 11008 21033 39202 40125 53012=
30949 42999 01301 11006 21061 39046 40122 57005=
30957 42999 00901 10004 21068 39222 40095 57005=
30961 42999 21602 10081 21069 39307 40055 55003 80005=
30965 42999 10401 11010 21083 39269 40081 58016 80002=
30967 42999 21903 10069 21054 39329 40055 56007 80002=
30971 42999 21902 11011 21068 39123 40083 56010 80001=
30975 42899 80901 10023 21096 39438 40064 56013 8801/=
30978 42999 02405 10064 21069 39416 40062 56008=
31004 42999 02501 11078 21139 39295 40137 52009=
31005 42899 20401 11087 21098 39764 40126 52011 82030=
31011 42999 00000 11101 21101 39764 40129 52004=
31016 42999 21701 11032 21084 39814 40103 53017 82030=
31026 42699 80000 11020 21105 39848 40096 53019 83872=
31041 12999 80000 11069 21070 39857 40086 53007 60002 84031 333 21071 43010 555 7001/=
31054 12999 30000 11063 21090 39814 40084 53002 60002 80005 333 21063 43032 555 7000/=
31062 12799 10000 11081 21083 39590 40071 57001 69992 81500 333 21114 3/115 47022 555 7999/=
31088 11495 83302 11033 21035 30017 40024 52004 69962 71022 886// 333 21033 44013 88710 555 53008 7996/=
31096 12499 82204 11030 21044 39977 40043 57020 60002 886// 333 21038 42022 91010 91110 555 53015 7000/=
31102 41999 20000 11063 21128 38695 48390 53013 70282 80001=
31123 41598 80000 11006 21015 39757 40073 53002 72682 889//=
31152 11997 80000 11001 21027 39658 40049 53001 60012 77172 8802/ 333 21002 47035 555 53008 7001/=
31168 11997 80305 11003 21023 30022 40029 55001 69902 77172 8802/ 333 21021 3/103 43011 555 53008=
31174 12999 80204 10037 21038 39986 49997 55015 60002 8801/ 333 21032 3/103 42025 555 53006 7000/=
31253 42599 83204 10085 21042 39566 49996 53011 889//=
31295 42999 80000 10056 21017 39571 40005 57009 80007=
31300 42999 80000 10054 21024 39726 40006 54000 8802/=
31329 42999 60000 11005 21036 39398 40051 57013 86030=
31369 12999 80905 11016 21033 39981 40038 57024 60002 80005 333 21025 3/103 44044 555 53010 7000/=
31371 42999 80000 10013 21047 39760 40018 56003 83031=
31388 41996 82001 10076 21042 39766 40015 57011 70422 82037=
31442 42999 82102 10086 21086 39682 40016 57007 80001=
31445 42998 81001 10026 21040 39784 40028 57007 82032=
31474 11999 70000 10005 21035 39610 40081 57004 60002 70411 80001 333 21016 34102 555 53001 7000/=
31478 11999 80801 11003 21044 39018 40083 57007 60002 70422 80002 333 21025 3/101 555 53005 7000/=
31510 42998 22504 10140 21052 39838 40037 57008 80001 333 91111=
31513 42999 41803 10081 21050 39824 40038 57006 80001=
31521 41958 81901 10087 21033 39771 40046 57008 70422 80005=
31527 42998 31803 10098 21070 39775 40061 56004 82031=
31583 42999 30000 10010 21037 39936 40080 57004 80001=
31587 42998 12401 10129 21071 39926 40063 57006 80001=
31594 42998 01402 10102 21066 39920 40083 57004=
31770 11597 82702 11010 21013 30083 40109 56010 60002 70242 81531 333 21016 34101 555 53002 7000/=
31832 11997 20000 10019 21015 30048 40132 52002 60002 70400 80001 333 20012 31000 555 53003 7000/=
31913 66/// /3002 10033 21068 30018 40134 54001 60002 333 20030=
32010 12998 71505 11027 21033 30009 40057 57025 60002 80002 333   21048 44050 91007 91108 555   7000/=
32027 11/93 91808 11028 21032 30049 40058 57006 60002 74542 333   21039 42123 91010 91112 555   7000/=
32053 12999 51903 11009 21031 30045 40095 57017 60002 80001 333   21040 43051 91004 91104 555   7000/=
32061 12998 21505 10074 21059 30055 40093 57019 60002 80002 333   21024 41998 91007 91108 555   7000/=
32069 11997 01105 10004 21025 30108 40114 57012 60002 70422 333   21014 34102 91007 91108 555   7000/=
32076 12998 21302 11015 21048 30099 40110 57019 60002 80001 333   21061 43077 91004 91104 555   7000/=
32098 12998 03401 11025 21036 30141 40152 56009 60002 333   21044 41999 91002 91103 555   7000/=
32099 12998 01606 11006 21018 30147 40156 57010 60002 333   21015 3/100 42998 91008 91108 555   7000/=
32121 12999 21002 10011 21023 30123 40147 56008 60002 82030 333   21017 91003 91104 555   7000/=
32165 11993 20402 10014 20012 30118 40176 55001 60002 74440 80001 333   20005 91003 91103 555   7000/=
32213 12598 63217 11006 21020 30085 40149 52015 60002 86500 333 21011 42028 91020 91124 555 53024 7000/=
32215 12576 33003 10023 21063 30133 40163 53010 69902 83900 333   21005 43074 91008 91117 555  =
32287 12999 21908 11023 21045 30101 40111 52007 60002 82030 333 21076 44077 91010 91111 555 53011 7000/=
32333 11999 02608 11009 21097 30028 40039 52010 60002 73630 333 21023 44049 91011 91113 555 53013 7000/=
32389 12699 72908 10016 21089 30040 40076 51007 60002 82531 333 21017 44082 91010 91113 555 53016 7000/=
32509 12999 50208 10024 21098 30045 40079 53020 60002 80001 333 20008 44035 91013 91116 555 53017 7000/=
32583 12999 13506 10009 21096 30071 40102 52019 60002 80030 333 21010 44110 91112 555 53012 7000/=
32594 11597 83406 11008 21027 30135 40171 52017 69902 70283 885// 333 21010 44997 91111 555 53012=
32596 12998 02209 10006 21066 30084 40110 51016 60002 333 21013 44047 91014 91114 555 53017 7000/=
32618 12598 63209 10013 21032 30020 40042 52022 60002 86800 333 20000 42998 91013 91114 555 53014 7000/=
33008 41980 82903 10140 20071 39946 40119 53001 72122 8807/=
33019 42960 82802 10117 20063 39943 40113 58005 80001=
33027 42997 60000 10093 20046 39954 40119 52007 80001=
33036 /2960 00000 10088 20037 39891 40119 52012=
33038 /2997 03103 10115 20028 39942 40112 52012=
33041 /2980 52601 10104 20055 39947 40099 53004 80004=
33088 42997 30000 10092 20064 39938 40126 58002 80004 555 1/008=
33135 429// 62704 10121 20071 39962 40106 52002 86030 555 1/009=
33177 42597 70000 10130 20086 39896 40127 57001 87500 555 1/012=
33213 42997 00000 10085 20052 40125 52008 555 1/006=
33228 42997 02101 10084 20060 40125 52010 555 1/006=
33231 42997 02701 10093 20048 39961 40114 52007 555 1/007=
33261 42997 61801 10101 20058 39931 40110 54000 86030 555 1/009=
33268 429// 61401 10096 20049 40112 58004 86030 555 1/008=
33275 42997 51703 10095 20043 39897 40117 57003 85030 555 1/008=
33287 42980 82702 10123 20065 40140 51003 80007 555 1/012=
33297 42997 70000 10093 20067 40142 52002 87030 555 1/008=
33301 42997 81902 10102 20061 39857 40134 58002 8805/ 555 1/009=
33312 42997 02401 10108 20041 40133 52009 555 1/009=
33317 429// 00000 10099 20070 39807 40138 52003 555 1/009=
33325 42997 20000 10118 20059 39871 40132 52008 82030 555 1/009=
33345 42998 02902 10139 20077 39920 40119 52009 555 11009=
33377 42997 60000 10085 20059 39926 40117 53002 80001 555 1/005=
33393 42960 60000 10101 20072 39763 40148 52006 80001 555 1/009=
33398 42997 70000 10133 20109 40144 52004 87030 555 1/009=
33409 42997 20000 10112 20081 40146 52005 80008 555 1/009=
33415 42997 72401 10116 20068 39757 40146 51005 80007 555 1/008=
33429 42997 32102 10118 20066 39730 40142 52005 80001 555 1/007=
33446 42997 02602 10108 20068 40137 52011 555 1/007=
33464 42963 02704 10132 20077 40127 52009 555 1/010=
33466 42966 62602 10141 20097 39939 40120 52008 82032 555 10010=
33496 /2204 10225 20221 39112 48491 7//// 333 59005 81/12=
33506 42997 30601 10106 20086 39920 40112 57005 80002 555 1/008=
33526 42960 52402 10119 20106 39820 40152 52006 85030 555 1/008=
33536 42960 20000 10133 20076 40147 52007 80001 555 1/009=
33548 42997 20601 10110 20077 40152 52006 80001 555 1/009=
33557 429// 02601 10109 20055 40146 52004 555 1/007=
33562 42963 32903 10126 20073 39787 40139 52009 80001 555 1/007=
33577 42962 00000 10103 20080 40136 53012 555 1/005=
33586 42996 03001 10127 20087 40126 52010 555 1/008=
33587 429// 03001 10135 20082 39878 40134 52014 555 1/008=
33609 42997 02701 10108 20090 39906 40123 52004 555 1/007=
33614 42969 80000 10120 20088 30018 40121 51003 8805/ 555 1/009=
33631 42997 30000 10141 20114 30006 40147 52005 83030 555 1/014=
33651 42597 50000 10114 20081 40154 51009 85500 555 1/012=
33657 41996 01801 10094 20086 40172 52006 71011 555 1/008=
33658 42970 53401 10129 20112 39859 40151 52005 85030 555 1/010=
33663 42997 00000 10103 20058 30044 40138 52010 555 1/009=
33664 42997 02701 10134 20106 39838 40148 52007=
33678 42998 12803 10123 20066 39937 40144 52011 80001=
33679 42997 02802 10138 20118 39955 40141 52011=
33711 42960 00000 10122 20107 39918 40122 52003 555 1/008=
33744 42997 22502 10138 20123 39957 40151 52003 82030=
33745 41996 50000 10127 20119 39974 40163 52006 71022 85030=
33748 42997 52501 10129 20129 39874 40151 52003 85030=
33749 42998 20000 10129 20110 30051 40147 52007 80001=
33754 42997 02302 10155 20117 39985 40126 53007=
33761 42998 02702 10136 20098 39918 40134 52010 555 1/010=
33791 42997 62503 10118 20079 39977 40124 53002 86030 555 1/010=
33815 42598 63003 10150 20110 39940 40141 52005 82530=
33821 42997 72903 10166 20121 30093 40142 52009 82032=
33829 41597 82902 10161 20117 30099 40147 52011 70282 82363=
33837 41562 82702 10160 20127 30089 40139 52002 72522 8535/ 555 1/017=
33881 41597 73101 10144 20124 39960 40151 52001 72582 87300=
33883 41597 80102 10151 20130 39983 40144 52005 78082 883//=
33885 41597 40102 10156 20125 30011 40145 52012 70282 84300=
33886 42597 73604 10170 20127 30058 40135 52007 87200=
33892 42997 82901 10165 20116 39948 40154 52011 8801/=
33902 42597 61903 10130 20103 30075 40140 51001 82360 555 1/013=
33924 42997 21806 10129 20096 30140 40152 52003 80001 333 91111=
33946 42960 41905 10127 20058 39938 40154 56001 84030=
33983 42597 62207 10129 20096 30103 40162 57005 86500 333 91010 91111=
34003 42598 82202 10103 20017 39807 40107 57006 885//=
34009 42597 82002 10102 20013 39815 40111 57005 885//=
34013 41597 81501 10090 20015 39898 40115 58007 70282 885//=
34047 42997 81902 10061 21039 39951 40132 57005 8801/=
34056 42996 41401 11005 21044 39871 40133 57003 80001=
34072 42697 52702 10008 21053 39769 40140 54001 85500=
34083 42999 02302 10033 21054 30026 40108 52005=
34109 42597 60000 10078 20053 39887 40120 57006 86500=
34110 42897 71901 10087 20019 39849 40121 57006 87030=
34123 42997 80000 10092 21007 39939 40118 57003 8803/=
34139 42997 81603 10085 21044 39896 40130 57008 8807/=
34146 42997 60000 10059 21010 30006 40136 58006 80001=
34152 42998 71702 10033 21034 39942 40137 57005 87030=
34163 42998 00000 10002 21044 39896 40150 54000=
34171 42960 02702 10060 21052 39948 40139 51002=
34186 42979 00000 10000 21044 30003 40141 52002=
34202 42597 82002 10103 20034 39848 40119 57004 883//=
34231 42598 70000 10076 21017 39985 40125 57005 87500 333 87627=
34238 42597 82002 10098 21042 39938 40125 57005 885//=
34240 82997 81503 10072 21047 30007 40138 57006 80001=
34247 42597 80000 10071 20002 30024 40137 57004 885// 333 88695=
34253 82998 60000 10035 21030 39980 40145 57004 80030=
34254 82598 81602 10073 21042 30024 40144 57005 884//=
34262 82997 60801 10024 21038 30005 40150 57003 84031=
34267 82598 80000 10020 21017 30025 40153 58003 84507=
34300 41960 81103 10102 20054 39934 40120 57005 70282 8805/ 555 1/009=
34312 42597 81802 10105 20050 40127 57006 885// 555 1/010=
34321 42997 81301 10118 20011 39991 40126 57007 8807/=
34336 42997 82301 10114 21001 30035 40136 57008 80009=
34344 82998 82303 10120 21014 30053 40139 57006 8807/=
34356 82998 81301 10064 21047 30008 40155 57004 80006=
34357 82998 81703 10100 21062 39991 40143 57006 80007=
34363 82998 72404 10052 21063 30005 40157 54001 80002=
34391 42997 22402 11007 21025 30120 40152 54001 80002=
34415 41597 81602 10103 20091 30034 40129 58004 76162 8772/ 555 1/011=
34438 41397 80501 10080 20069 39959 40148 58006 78082 883//=
34445 82598 82102 10108 20007 30040 40151 57005 885//=
34461 82997 81601 10065 21012 30103 40158 57002 80006=
34476 82998 22003 10039 21028 30156 40164 54001 82030=
34504 42997 32503 10115 20078 39941 40115 58003 83030 555 1/010=
34535 81598 80000 10106 20082 30074 40144 57006 78082 8697/=
34545 81498 80000 10096 20053 30043 40152 55005 78022 883//=
34555 41497 81905 10080 21040 30076 40159 57004 78081 889//=
34560 42997 61903 10068 21015 39975 40164 57002 86030=
34578 82997 31702 10052 21038 30171 40178 57003 80005=
34579 82998 01903 10046 21029 30133 40178 57004=
34601 42960 42003 10130 20079 39987 40120 57005 84030 555 1/012=
34644 81597 81501 10108 20081 30078 40154 57007 70282 8687/=
34646 82998 82402 10108 20040 30081 40161 57002 8805/=
34655 82597 81903 10099 20031 30107 40166 56006 884//=
34662 82998 81302 10068 20002 30161 40172 57006 80007=
34691 42998 20000 10048 21012 30190 40178 52006 82030=
34712 41598 82505 10123 20105 30062 40146 58002 72582 883// 333 88923 555 1/=
34720 81498 82603 10128 20090 30116 40155 52003 78082 889//=
34727 41597 82309 10131 20051 30128 40157 53002 78088 883// 333 91013 91115=
34740 82598 72401 10133 20043 30070 40164 57005 84420=
34743 82997 81701 10097 20036 30079 40166 57008 8805/=
34759 82497 81703 10098 20017 30046 40175 58012 83404=
34772 42997 01903 10038 21026 30184 40188 58005=
34785 82997 01701 10035 21028 30215 40192 57005=
34824 82597 82302 10147 20044 30160 40165 55001 883//=
34838 82997 01802 10110 20020 30073 40168 57009=
34845 82598 82001 10123 20048 30064 40168 57008 8657/=
34858 42997 81903 10100 20027 30072 40178 58010 8807/=
34861 42997 81803 10085 20008 39942 40181 52004 8803/=
34866 82998 71702 10084 20020 30193 40185 57010 8003/=
34868 82998 71503 10091 20012 30049 40187 57012 80001=
34880 82997 01201 10048 21036 30222 40196 57005=
34887 82998 01601 10063 21033 30220 40201 57005=
34949 82998 32204 10097 20007 39650 40187 57011 80001=
34954 82998 31802 10107 20012 30013 40184 57010 80001=
34958 82998 00101 10041 20002 39994 40195 57009=
34975 82998 01701 10086 20007 30197 40193 52009=
34984 82998 01904 10040 21001 30232 40205 57004=
35011 42998 62303 10009 21040 39969 40124 54001 86030=
35026 41596 82604 11020 21033 39480 40118 54000 78582 889//=
35037 41598 72403 11010 21038 39698 40120 52003 72682 87900=
35121 42998 32403 10005 21029 39981 40128 52005 83030=
35217 429// 72204 10016 21019 30105 40144 52003 87030=
35302 429// 52402 11005 21026 30128 40147 52004 85080=
35394 41698 42404 10073 20065 39472 40123 52035 70281 84500=
35406 429// 52503 10021 21016 30159 40161 52001 85030=
35416 429// 52204 10020 21008 30042 40162 58002 85060=
35426 429// 62102 10003 21024 39880 40171 51003 86030=
35497 425// 82302 10064 20058 39376 40147 52031 889//=
35532 42598 72907 10010 21025 39681 40170 52006 87900=
35671 42598 22804 10075 20038 39738 40153 52013 82500=
35700 42998 50902 10079 21030 30217 40194 52004 85030=
35746 425// 83502 10083 21044 30116 40181 52014 885//=
35796 42697 63109 10122 20059 39723 40135 52054 82501 333 91120=
35849 42598 82501 10098 20064 30098 40181 52004 883//=
35925 429// 02503 10023 21052 40222 52013=
35953 429// 32904 10102 20073 30067 40192 52009 80002=
35969 429// 61806 10104 20064 30030 40196 52004 86040=
36021 42999 71804 10148 20087 39805 49971 57027 87070 333 91110=
36022 42998 81706 10170 20081 39743 49984 56037 8805/ 333 91110=
36034 42998 51906 10170 20069 39757 40010 57025 80005 333 91113=
36038 42598 81604 10180 20044 39618 40025 56022 8657/ 333 91111=
36052 42960 02201 10066 20066 39728 40078 57012=
36055 42699 81801 10063 20042 39692 40081 57013 84431=
36057 42699 81502 10131 21002 39105 40080 57011 885//=
36058 42999 31601 10070 20047 39599 40098 57010 80005=
36061 42999 80000 10038 20033 39703 40098 57009 8805/=
36064 42/// /2901 10062 20029 39542 40116 57007=
36078 42697 41101 10034 21004 39017 40164 57004 84500 333 95090=
36083 429// 01301 10036 21001 39487 40180 54000=
36090 46/// /3205 11000 21032 39009 48467 57003=
36091 429// 00000 11023 21032 39395 40205 52002=
36092 42998 03402 10033 21024 39159 40177 54000=
36096 42997 20401 10055 21015 39417 40168 52004 80001=
36103 42999 30000 11032 21043 39113 40228 54000 80001=
36104 42997 01402 10040 21012 39333 40172 52002=
36229 42999 51201 10039 20009 39016 40153 57001 82031=
36259 42999 63601 10004 21056 38227 48497 50001 80001=
36278 42999 00000 10019 21065 38150 48496 57002=
36307 42997 51003 10074 21046 38902 48482 53004 80002=
36358 429// 72306 10140 20021 39071 40010 53002 80002=
36397 426// 81611 10192 20035 39521 40035 57008 885// 333 91015 91118=
36428 427// 50502 10126 20069 39606 40074 57013 82501 333 95090=
36535 429// 60000 10094 20048 39497 40096 57003 80001=
36639 429// 70000 10114 20091 39518 40088 53007 84032=
36821 415// 72408 10156 20102 39704 40164 52047 73133 87900 333 91020=
36859 425// 72402 10200 20054 39377 40098 52033 84945=
36864 426// 82910 10146 20071 39328 40176 52018 8457/ 333 91123=
36870 415// 80000 10167 20093 39224 40179 52023 70282 889//=
36911 415// 82702 10116 20112 39270 40209 52021 78182 889//=
36974 429// 80901 10106 21014 37965 48501 52004 80006=
36982 429// 30005 11011 21078 36576 47134 58014 80006=
37001 82997 01807 10133 20084 30135 40175 57011=
37018 82997 20402 10103 20046 30113 40187 58009 80001=
37021 82998 01603 10112 20016 39922 40186 57010=
37031 82997 81501 10089 20033 39989 40182 57009 80004=
37036 82998 00000 10047 20011 39782 40200 57009=
37054 82997 00000 10045 20005 39821 40208 58011=
37058 42998 02801 10068 20009 39840 40199 57011=
37061 82997 01301 10059 20000 30028 40195 57012=
37085 82996 01302 10075 20058 30231 40203 57007=
37107 42969 00000 10073 20046 39534 40208 54000=
37126 42999 62202 11005 21044 37943 48514 52004 83031=
37144 82998 00000 10071 20041 39952 40197 57009=
37163 81996 01101 10060 20055 30209 40204 58007 71000=
37171 42996 00703 10122 20077 30174 40192 54000=
37193 82998 02401 10042 21022 38690 48508 56015=
37212 82998 02202 10072 20022 39689 40201 57013=
37218 42997 01603 10075 20007 39417 40203 57012=
37228 42997 01901 10070 20006 39373 40203 58013=
37235 42997 01001 10090 20066 39886 40201 58010=
37244 82997 02702 10077 20050 30105 40200 58010=
37463 32997 02901 10010 21010 38613 48505 57004=
37470 82997 01803 10040 20023 30243 40221 58007 333 91110=
37472 82998 01401 10094 20064 30231 40208 57011=
37663 82597 80801 10050 20026 39061 48535 57002 885//=
38141 42998 03203 10049 20008 30065 40225 52015=
38149 41598 83306 10112 20080 30133 40209 52012 70288 889//=
38178 426// 52203 10095 20038 39911 40193 52002 85500=
38203 42698 83303 10112 20058 39767 40212 52013 885//=
38262 415// 82001 10107 20099 30118 40199 54000 78088 889//=
38264 41798 89901 10104 20092 30114 40205 52003 78082 8397/=
38345 41696 82602 10097 20085 38818 48523 52007 78182 889//=
38353 415// 82602 10115 20105 39344 40217 52016 78088 889//=
38388 41596 82701 10127 20112 30152 40221 51010 76162 8802/=
38392 41797 72808 10130 20099 30107 40208 52004 70282 86530 333 86653=
38396 41797 72502 10134 20102 30086 40208 50001 70282 8337/ 333 83952=
38403 429// 50000 10135 20017 30082 40200 52005 85070=
38413 429// 61402 10106 20032 39955 40242 52006 86050=
38457 42597 72501 10134 20115 39619 40189 57005 87500=
38462 426// 80000 10092 20068 38787 48524 52005 8692/=
38507 42996 60000 10094 20077 30141 40243 52005 86030=
38511 42998 00000 10116 20065 30088 40228 52007=
38545 42998 52502 10123 20110 30040 40212 58001 85050=
38565 329// 00000 10123 20055 3//// 4//// 5////=
38579 325// 60000 10151 20129 39784 40188 57005 86900=
38583 32597 62501 10137 20117 39889 40202 58006 84941=
38598 426// 82707 10164 20117 40184 52002 885//=
38599 42797 82507 10153 20126 39688 40185 58001 889// 333 88950=
38611 41797 80301 10166 20119 39620 40168 52020 78088 889// 333 85089=
38613 429// 80202 10164 20079 40085 52007 8802/=
38616 425// 71801 10162 20099 39197 40171 51009 87300=
38618 415// 82401 10176 20131 39485 40142 51007 72582 84941=
38647 42997 20000 10144 20092 30185 40226 52014 82050=
38656 42998 00000 10136 20104 30118 40225 52006=
38683 42697 30000 10125 20089 39936 40207 58007 83500=
38687 42997 03201 10139 20103 39985 40216 58003=
38696 326// 32501 10136 20110 39361 40193 58002 83100=
38705 426// 80000 10134 20048 39015 48510 58003 8592/=
38713 41560 80000 10106 20094 39061 48540 51003 70382 8697/=
38715 414// 61806 10014 20000 47130 51002 74142 86900=
38719 41/// 91804 11019 21028 47140 57005 78584 333   96045=
38725 425// 80000 10090 20050 48520 57005 86402=
38744 426// 82203 10102 20036 38030 48520 58002 889//=
38750 42997 00303 10133 20112 30260 40232 52004=
38763 42997 02805 10134 20105 30125 40228 52007=
38774 42995 00000 10136 20118 30037 40228 58013=
38794 42696 80000 10140 20098 30008 40217 52002 885//=
38799 42597 80201 10142 20093 39984 40210 54000 885//=
38806 42997 23201 10142 20102 39953 40207 58002 80002=
38812 42797 83502 10132 20105 39754 40197 52001 8335/=
38836 416// 80000 10155 20086 39207 40108 57005 70282 889//=
38838 426// 82302 10153 20129 39544 40193 52012 889//=
38844 41/// 92706 10078 20078 48460 58007 74584=
38846 414// 80305 10121 20121 38524 48490 52009 78188 889//=
38851 415// 80000 10124 20117 48540 54000 78082 889//=
38852 415// 82101 10094 20090 48/// 52007 78182 889//=
38856 426// 80000 10168 20095 48510 54000 885//=
38875 425// 62302 10009 21067 47/// 5//// 82302=
38878 429// 20000 10016 21107 47100 54000 80003=
38880 42797 43101 10158 20092 39974 40222 52008 83530=
38886 42597 70000 10176 20100 39994 40215 52005 87900=
38895 42696 80000 10171 20097 39933 40214 52001 885//=
38911 42997 23505 10165 20129 39916 40201 52013 80002=
38915 42997 23203 10194 20114 39874 40182 54000 82030=
38927 32860 72004 10195 20106 39806 40166 58004 87950 333 86966=
38932 425// 81801 10153 20127 40183 58011 889//=
38933 417// 81402 10173 20143 39683 40178 52010 70282 885//=
38941 414// 81805 10190 20118 58082 889//=
38944 415// 80000 10173 20149 39607 40121 52003 78082 889//=
38950 429// 00000 10074 20050 47120 58009=
38951 429// 40901 10128 20070 48530 54000 80002=
38954 429// 10000 10127 20027 37937 48510 58013 80001=
38957 429// 00000 10097 20038 47900 58004=
38974 42998 83401 10173 20095 39888 40212 52008 86077=
38987 42696 70403 10166 20102 39479 40198 54000 87500=



SMUS30 KWBC 242100
AAXX 24214
37395 42997 00902 10112 20062 30064 40202 54000=
37409 46/// /0906 10061 20033 38801 48529 57002 6///7=
37514 32996 00000 10042 20022 39072 40236 52006=
37545 425// 31605 10133 20080 39716 40220 52014 83100=
37575 42596 81403 10110 20058 39692 40275 52018 885//=
37621 426// 20000 10120 20074 39598 40230 52017 80030=
37661 42597 70701 10097 20045 39502 40258 52024 875//=
37675 42995 02502 10053 20023 39583 40248 57007=
37682 32997 03601 10040 20035 38144 48531 52003=
37717 32995 00000 10039 20008 38096 48519 52005=
37735 42997 61114 10110 20051 39865 40238 52026 86070=
37740 42596 83202 10081 20065 39457 40263 52012 885//=
37747 42998 82103 10122 20080 30233 40251 52012 8805/=
37749 42998 80000 10110 20077 30144 40260 52006 8807/=
37756 42997 60000 10064 20043 39364 40258 52005 86050=
37759 42598 80601 10071 21009 39281 40277 52009 885//=
37788 42999 00603 10136 20015 39198 40171 52006=
37844 42598 61903 10099 20078 30241 40246 52013 83530=
37851 42998 30204 10095 20051 30204 40274 52003 83030=
37864 42997 00000 10076 20058 40243 57001=
37925 42997 00503 10101 20082 30277 40248 52001=
37936 429// 31802 10106 20048 39166 40182 53005 83030=
37985 42596 82701 10122 20099 30259 40244 52002 885//=
37989 41496 83101 10124 20114 30270 40243 52003 76162 8872/=